Time;durP1;ratioP1;P1;durP2;ratioP2;P2;SDS_P1;SDS_P2;PMS_P1;PMS_P2;Temp;Humidity;BMP_temperature;BMP_pressure;BME280_temperature;BME280_humidity;BME280_pressure;Samples;Min_cycle;Max_cycle;Signal;HPM_P1;HPM_P2
2023/05/26 00:01:46;;;;;;;1.20;0.50;;;;;;;;;;4939986;28;91359;-53
2023/05/26 00:04:16;;;;;;;1.03;0.90;;;;;;;;;;4925368;28;94348;-54
2023/05/26 00:06:46;;;;;;;1.97;0.80;;;;;;;;;;4939560;28;93754;-53
2023/05/26 00:09:14;;;;;;;8.00;0.90;;;;;;;;;;4939328;28;93086;-53
2023/05/26 00:11:43;;;;;;;3.47;0.57;;;;;;;;;;4939063;28;92043;-54
2023/05/26 00:14:14;;;;;;;1.87;0.73;;;;;;;;;;4939217;28;94088;-54
2023/05/26 00:16:42;;;;;;;0.70;0.70;;;;;;;;;;4938660;28;93951;-52
2023/05/26 00:19:12;;;;;;;13.47;1.00;;;;;;;;;;4939479;28;91883;-53
2023/05/26 00:21:40;;;;;;;3.30;0.83;;;;;;;;;;4939667;28;92045;-53
2023/05/26 00:24:09;;;;;;;3.13;1.00;;;;;;;;;;4939070;28;94168;-54
2023/05/26 00:26:37;;;;;;;2.07;0.70;;;;;;;;;;4939766;28;93916;-54
2023/05/26 00:29:06;;;;;;;0.73;0.60;;;;;;;;;;4942985;28;92042;-53
2023/05/26 00:31:50;;;;;;;1.83;0.60;;;;;;;;;;4942363;28;91906;-53
2023/05/26 00:34:18;;;;;;;5.07;1.00;;;;;;;;;;4941039;28;94698;-53
2023/05/26 00:36:47;;;;;;;1.50;0.50;;;;;;;;;;4941543;28;95078;-53
2023/05/26 00:39:16;;;;;;;3.13;0.90;;;;;;;;;;4961608;28;92070;-53
2023/05/26 00:41:44;;;;;;;2.37;0.60;;;;;;;;;;4961886;28;92111;-54
2023/05/26 00:44:12;;;;;;;2.10;1.33;;;;;;;;;;4961405;28;93155;-53
2023/05/26 00:46:41;;;;;;;3.07;1.13;;;;;;;;;;4961462;28;92761;-54
2023/05/26 00:49:10;;;;;;;2.00;0.67;;;;;;;;;;4962087;28;92028;-54
2023/05/26 00:51:39;;;;;;;3.20;0.77;;;;;;;;;;4962502;28;91186;-54
2023/05/26 00:54:09;;;;;;;2.40;0.60;;;;;;;;;;4961225;28;94121;-53
2023/05/26 00:56:37;;;;;;;0.67;0.50;;;;;;;;;;4960939;28;93876;-53
2023/05/26 00:59:06;;;;;;;2.20;0.90;;;;;;;;;;4961360;28;92925;-54
2023/05/26 01:01:34;;;;;;;0.90;0.57;;;;;;;;;;4961270;28;92101;-54
2023/05/26 01:04:02;;;;;;;1.47;0.80;;;;;;;;;;4961144;28;94046;-54
2023/05/26 01:06:32;;;;;;;2.33;1.13;;;;;;;;;;4961639;28;93847;-53
2023/05/26 01:09:01;;;;;;;5.67;0.97;;;;;;;;;;4961493;28;92043;-54
2023/05/26 01:11:29;;;;;;;1.23;0.67;;;;;;;;;;4961766;28;91936;-53
2023/05/26 01:13:59;;;;;;;1.73;0.80;;;;;;;;;;4961094;28;93169;-53
2023/05/26 01:16:29;;;;;;;4.40;0.70;;;;;;;;;;4961742;28;93826;-53
2023/05/26 01:18:59;;;;;;;1.73;0.63;;;;;;;;;;4960908;28;92029;-53
2023/05/26 01:21:29;;;;;;;1.40;0.83;;;;;;;;;;4961592;28;92097;-52
2023/05/26 01:24:16;;;;;;;1.13;0.90;;;;;;;;;;4960181;28;95229;-53
2023/05/26 01:26:50;;;;;;;0.77;0.70;;;;;;;;;;4960932;28;94808;-53
2023/05/26 01:29:20;;;;;;;1.03;0.70;;;;;;;;;;4960881;28;92081;-53
2023/05/26 01:31:48;;;;;;;2.03;0.97;;;;;;;;;;4960703;28;92030;-53
2023/05/26 01:34:17;;;;;;;0.87;0.70;;;;;;;;;;4960269;28;94355;-53
2023/05/26 01:36:45;;;;;;;0.83;0.80;;;;;;;;;;4960469;28;93936;-52
2023/05/26 01:39:13;;;;;;;4.77;1.47;;;;;;;;;;4959681;28;91973;-53
2023/05/26 01:41:43;;;;;;;2.00;0.90;;;;;;;;;;4961345;28;91353;-53
2023/05/26 01:44:14;;;;;;;1.50;0.63;;;;;;;;;;4960238;28;94258;-54
2023/05/26 01:46:45;;;;;;;1.23;0.70;;;;;;;;;;4960898;28;94046;-53
2023/05/26 01:49:14;;;;;;;2.87;0.90;;;;;;;;;;4960316;28;92990;-54
2023/05/26 01:51:44;;;;;;;1.00;0.70;;;;;;;;;;4960651;28;92046;-54
2023/05/26 01:54:12;;;;;;;3.37;0.90;;;;;;;;;;4960110;28;92952;-53
2023/05/26 01:56:40;;;;;;;3.83;1.13;;;;;;;;;;4960418;28;94171;-53
2023/05/26 01:59:09;;;;;;;5.37;1.23;;;;;;;;;;4960375;28;92001;-52
2023/05/26 02:01:37;;;;;;;1.13;0.93;;;;;;;;;;4961098;28;91967;-52
2023/05/26 02:04:09;;;;;;;1.10;0.80;;;;;;;;;;4960028;28;94079;-53
2023/05/26 02:06:38;;;;;;;2.67;0.77;;;;;;;;;;4960815;28;93354;-52
2023/05/26 02:09:06;;;;;;;2.60;1.00;;;;;;;;;;4959900;28;92140;-53
2023/05/26 02:11:35;;;;;;;8.53;1.37;;;;;;;;;;4960024;28;92097;-54
2023/05/26 02:14:03;;;;;;;3.27;0.87;;;;;;;;;;4959600;28;95142;-53
2023/05/26 02:16:32;;;;;;;2.63;1.00;;;;;;;;;;4960571;28;95195;-53
2023/05/26 02:19:01;;;;;;;3.13;0.80;;;;;;;;;;4960279;28;92062;-53
2023/05/26 02:21:30;;;;;;;1.47;0.63;;;;;;;;;;4960393;28;91966;-53
2023/05/26 02:23:59;;;;;;;2.23;1.20;;;;;;;;;;4960020;28;94118;-53
2023/05/26 02:26:27;;;;;;;1.17;1.07;;;;;;;;;;4959948;28;93985;-53
2023/05/26 02:28:56;;;;;;;3.47;0.97;;;;;;;;;;4960528;28;92136;-53
2023/05/26 02:31:25;;;;;;;2.43;0.97;;;;;;;;;;4960298;28;91262;-53
2023/05/26 02:33:53;;;;;;;2.00;0.90;;;;;;;;;;4957843;28;94123;-53
2023/05/26 02:36:21;;;;;;;1.23;1.07;;;;;;;;;;4958732;28;93903;-53
2023/05/26 02:38:51;;;;;;;1.97;1.00;;;;;;;;;;4956925;28;93044;-53
2023/05/26 02:41:20;;;;;;;5.63;1.50;;;;;;;;;;4958151;28;92082;-53
2023/05/26 02:43:48;;;;;;;1.77;0.90;;;;;;;;;;4959624;28;93288;-52
2023/05/26 02:46:16;;;;;;;1.97;0.83;;;;;;;;;;4958397;28;94063;-53
2023/05/26 02:48:45;;;;;;;1.87;0.87;;;;;;;;;;4959860;28;92047;-53
2023/05/26 02:51:13;;;;;;;2.30;0.80;;;;;;;;;;4958217;28;92397;-53
2023/05/26 02:53:41;;;;;;;2.60;1.17;;;;;;;;;;4958443;28;94190;-49
2023/05/26 02:56:11;;;;;;;1.90;0.77;;;;;;;;;;4958571;28;92867;-49
2023/05/26 02:58:40;;;;;;;2.30;0.73;;;;;;;;;;4958293;28;92161;-49
2023/05/26 03:01:08;;;;;;;1.97;1.23;;;;;;;;;;4958566;28;92410;-49
2023/05/26 03:03:36;;;;;;;2.03;0.80;;;;;;;;;;4955912;28;94099;-49
2023/05/26 03:06:05;;;;;;;8.03;1.47;;;;;;;;;;4959562;28;94839;-49
2023/05/26 03:08:34;;;;;;;5.27;1.87;;;;;;;;;;4958805;28;93410;-49
2023/05/26 03:11:02;;;;;;;2.50;0.97;;;;;;;;;;4959953;28;92123;-49
2023/05/26 03:13:40;;;;;;;4.27;0.77;;;;;;;;;;4958784;28;94130;-49
2023/05/26 03:16:08;;;;;;;2.23;0.70;;;;;;;;;;4959462;28;94016;-49
2023/05/26 03:18:36;;;;;;;1.93;0.70;;;;;;;;;;4959381;28;92250;-49
2023/05/26 03:21:06;;;;;;;1.40;0.70;;;;;;;;;;4959634;28;91446;-48
2023/05/26 03:23:54;;;;;;;3.57;1.17;;;;;;;;;;4958774;28;94939;-48
2023/05/26 03:26:23;;;;;;;4.20;1.10;;;;;;;;;;4958952;28;93509;-48
2023/05/26 03:28:52;;;;;;;8.77;1.33;;;;;;;;;;4958930;28;92970;-49
2023/05/26 03:31:21;;;;;;;4.53;1.33;;;;;;;;;;4959235;28;92048;-49
2023/05/26 03:33:49;;;;;;;1.80;1.10;;;;;;;;;;4958776;28;93043;-49
2023/05/26 03:36:17;;;;;;;4.93;0.83;;;;;;;;;;4955659;28;93992;-49
2023/05/26 03:38:46;;;;;;;1.20;0.70;;;;;;;;;;4959444;28;92024;-50
2023/05/26 03:41:14;;;;;;;4.53;1.10;;;;;;;;;;4959349;28;93076;-49
2023/05/26 03:43:43;;;;;;;0.63;0.50;;;;;;;;;;4958751;28;92064;-49
2023/05/26 03:46:12;;;;;;;1.10;0.90;;;;;;;;;;4958900;28;93990;-49
2023/05/26 03:48:41;;;;;;;2.30;0.97;;;;;;;;;;4959263;28;91981;-49
2023/05/26 03:51:09;;;;;;;2.10;0.80;;;;;;;;;;4959274;28;92111;-49
2023/05/26 03:53:37;;;;;;;0.43;0.43;;;;;;;;;;4958329;28;94159;-49
2023/05/26 03:56:06;;;;;;;5.37;1.67;;;;;;;;;;4958960;28;94926;-49
2023/05/26 03:58:34;;;;;;;2.87;0.80;;;;;;;;;;4959368;28;92064;-49
2023/05/26 04:01:03;;;;;;;0.67;0.63;;;;;;;;;;4959582;28;92046;-49
2023/05/26 04:03:33;;;;;;;1.57;1.10;;;;;;;;;;4962346;28;93197;-49
2023/05/26 04:06:02;;;;;;;3.07;0.80;;;;;;;;;;4962031;28;92820;-49
2023/05/26 04:08:30;;;;;;;1.30;0.80;;;;;;;;;;4963162;28;91864;-49
2023/05/26 04:10:59;;;;;;;0.77;0.50;;;;;;;;;;4963425;28;91229;-49
2023/05/26 04:13:27;;;;;;;1.93;0.90;;;;;;;;;;4962291;28;94170;-49
2023/05/26 04:15:55;;;;;;;2.03;0.67;;;;;;;;;;4962204;28;94135;-49
2023/05/26 04:18:24;;;;;;;2.87;0.90;;;;;;;;;;4961716;28;93033;-49
2023/05/26 04:20:53;;;;;;;1.27;0.80;;;;;;;;;;4961376;28;92113;-48
2023/05/26 04:23:22;;;;;;;1.63;1.10;;;;;;;;;;4961473;28;93234;-49
2023/05/26 04:25:50;;;;;;;3.03;0.73;;;;;;;;;;4961557;28;92927;-49
2023/05/26 04:28:19;;;;;;;2.67;0.67;;;;;;;;;;4961720;28;91962;-48
2023/05/26 04:30:47;;;;;;;6.93;0.90;;;;;;;;;;4962144;28;91951;-49
2023/05/26 04:33:16;;;;;;;2.03;0.90;;;;;;;;;;4961880;28;93409;-48
2023/05/26 04:35:44;;;;;;;1.67;0.70;;;;;;;;;;4961251;28;92893;-49
2023/05/26 04:38:15;;;;;;;2.87;1.00;;;;;;;;;;4961344;28;92154;-49
2023/05/26 04:40:44;;;;;;;2.37;0.90;;;;;;;;;;4962022;28;92106;-48
2023/05/26 04:43:12;;;;;;;1.60;0.70;;;;;;;;;;4960412;28;95268;-50
2023/05/26 04:45:43;;;;;;;2.77;0.80;;;;;;;;;;4960048;28;94821;-48
2023/05/26 04:48:12;;;;;;;1.60;0.70;;;;;;;;;;4961146;28;92076;-48
2023/05/26 04:50:40;;;;;;;3.53;0.67;;;;;;;;;;4961535;28;92223;-48
2023/05/26 04:53:10;;;;;;;6.67;1.03;;;;;;;;;;4960934;28;94078;-48
2023/05/26 04:55:41;;;;;;;0.80;0.47;;;;;;;;;;4961549;28;94052;-48
2023/05/26 04:58:09;;;;;;;1.43;0.60;;;;;;;;;;4961238;28;92212;-48
2023/05/26 05:00:38;;;;;;;2.37;1.20;;;;;;;;;;4962382;28;91956;-50
2023/05/26 05:03:06;;;;;;;1.60;0.87;;;;;;;;;;4961044;28;94408;-48
2023/05/26 05:05:34;;;;;;;2.47;0.83;;;;;;;;;;4961217;28;93811;-48
2023/05/26 05:08:03;;;;;;;1.40;0.97;;;;;;;;;;4960421;28;94321;-49
2023/05/26 05:10:31;;;;;;;2.20;0.90;;;;;;;;;;4961661;28;92062;-49
2023/05/26 05:13:01;;;;;;;1.70;0.90;;;;;;;;;;4954027;28;94151;-49
2023/05/26 05:15:29;;;;;;;1.43;1.07;;;;;;;;;;4941903;28;94001;-49
2023/05/26 05:17:58;;;;;;;5.60;1.20;;;;;;;;;;4948538;28;91914;-49
2023/05/26 05:20:26;;;;;;;4.33;1.53;;;;;;;;;;4961130;28;92127;-49
2023/05/26 05:22:55;;;;;;;2.20;1.00;;;;;;;;;;4960636;28;93177;-49
2023/05/26 05:25:23;;;;;;;2.03;0.83;;;;;;;;;;4960894;28;94205;-49
2023/05/26 05:27:52;;;;;;;2.53;0.90;;;;;;;;;;4960264;28;91973;-49
2023/05/26 05:30:22;;;;;;;3.70;1.17;;;;;;;;;;4956506;28;92098;-49
2023/05/26 05:32:50;;;;;;;1.37;0.60;;;;;;;;;;4943495;28;95626;-49
2023/05/26 05:35:19;;;;;;;2.70;0.73;;;;;;;;;;4940714;28;93565;-49
2023/05/26 05:37:47;;;;;;;3.03;1.23;;;;;;;;;;4941198;28;92077;-49
2023/05/26 05:40:16;;;;;;;1.57;0.67;;;;;;;;;;4956043;28;92167;-49
2023/05/26 05:42:44;;;;;;;1.17;0.93;;;;;;;;;;4958486;28;94261;-49
2023/05/26 05:45:12;;;;;;;3.77;0.60;;;;;;;;;;4950049;28;94011;-49
2023/05/26 05:47:42;;;;;;;3.43;1.00;;;;;;;;;;4941218;28;92089;-49
2023/05/26 05:50:10;;;;;;;0.93;0.67;;;;;;;;;;4946795;28;91366;-49
2023/05/26 05:52:39;;;;;;;1.90;0.93;;;;;;;;;;4960709;28;94394;-49
2023/05/26 05:55:08;;;;;;;1.93;0.80;;;;;;;;;;4960684;28;92963;-49
2023/05/26 05:57:36;;;;;;;3.53;0.87;;;;;;;;;;4960551;28;92982;-49
2023/05/26 06:00:05;;;;;;;1.73;0.83;;;;;;;;;;4960898;28;92169;-49
2023/05/26 06:02:33;;;;;;;1.27;0.70;;;;;;;;;;4960464;28;94202;-49
2023/05/26 06:05:03;;;;;;;1.90;0.90;;;;;;;;;;4960714;28;92527;-49
2023/05/26 06:07:32;;;;;;;3.90;0.90;;;;;;;;;;4960871;28;92060;-49
2023/05/26 06:10:01;;;;;;;2.57;0.93;;;;;;;;;;4959950;28;92018;-49
2023/05/26 06:12:29;;;;;;;3.10;0.87;;;;;;;;;;4960141;28;94139;-49
2023/05/26 06:14:57;;;;;;;1.90;0.60;;;;;;;;;;4960555;28;91909;-49
2023/05/26 06:17:26;;;;;;;2.07;1.20;;;;;;;;;;4960719;28;92093;-49
2023/05/26 06:19:54;;;;;;;2.60;0.60;;;;;;;;;;4959976;28;92245;-49
2023/05/26 06:22:24;;;;;;;2.10;0.70;;;;;;;;;;4959568;28;95233;-49
2023/05/26 06:24:53;;;;;;;3.13;0.83;;;;;;;;;;4958703;28;94914;-49
2023/05/26 06:27:21;;;;;;;2.80;0.60;;;;;;;;;;4959512;28;92056;-48
2023/05/26 06:29:49;;;;;;;1.40;0.70;;;;;;;;;;4958165;28;92035;-49
2023/05/26 06:32:18;;;;;;;1.90;0.40;;;;;;;;;;4959913;28;93239;-48
2023/05/26 06:34:46;;;;;;;1.97;0.93;;;;;;;;;;4958185;28;92724;-48
2023/05/26 06:37:14;;;;;;;2.40;1.00;;;;;;;;;;4958672;28;92230;-48
2023/05/26 06:39:44;;;;;;;3.23;0.73;;;;;;;;;;4958804;28;91633;-48
2023/05/26 06:42:12;;;;;;;1.43;0.70;;;;;;;;;;4958919;28;94384;-49
2023/05/26 06:44:41;;;;;;;2.00;1.00;;;;;;;;;;4958152;28;94121;-49
2023/05/26 06:47:09;;;;;;;2.47;0.70;;;;;;;;;;4958640;28;92981;-48
2023/05/26 06:49:38;;;;;;;2.03;0.70;;;;;;;;;;4959797;28;92037;-49
2023/05/26 06:52:06;;;;;;;2.97;0.97;;;;;;;;;;4960025;28;94812;-49
2023/05/26 06:54:35;;;;;;;2.93;0.60;;;;;;;;;;4959616;28;94057;-49
2023/05/26 06:57:05;;;;;;;2.83;0.30;;;;;;;;;;4959832;28;92046;-49
2023/05/26 06:59:33;;;;;;;1.87;0.70;;;;;;;;;;4959571;28;92118;-48
2023/05/26 07:02:02;;;;;;;3.50;0.70;;;;;;;;;;4958950;28;94131;-49
2023/05/26 07:04:30;;;;;;;0.80;0.70;;;;;;;;;;4959676;28;93916;-49
2023/05/26 07:06:59;;;;;;;3.13;0.97;;;;;;;;;;4959666;28;92409;-49
2023/05/26 07:09:27;;;;;;;1.07;0.40;;;;;;;;;;4959459;28;91948;-49
2023/05/26 07:11:55;;;;;;;3.23;1.20;;;;;;;;;;4958342;28;95256;-48
2023/05/26 07:14:25;;;;;;;2.03;0.80;;;;;;;;;;4959514;28;94890;-49
2023/05/26 07:16:54;;;;;;;2.73;1.00;;;;;;;;;;4959859;28;91787;-49
2023/05/26 07:19:22;;;;;;;0.57;0.43;;;;;;;;;;4959306;28;92043;-49
2023/05/26 07:21:50;;;;;;;4.50;0.73;;;;;;;;;;4959172;28;93228;-49
2023/05/26 07:24:19;;;;;;;3.43;1.10;;;;;;;;;;4959406;28;93631;-49
2023/05/26 07:26:47;;;;;;;0.90;0.70;;;;;;;;;;4959457;28;92136;-49
2023/05/26 07:29:16;;;;;;;1.90;0.80;;;;;;;;;;4960446;28;91264;-49
2023/05/26 07:31:45;;;;;;;0.97;0.57;;;;;;;;;;4959190;28;94314;-49
2023/05/26 07:34:14;;;;;;;2.20;0.60;;;;;;;;;;4958814;28;93775;-49
2023/05/26 07:36:42;;;;;;;6.17;0.83;;;;;;;;;;4961100;28;93239;-49
2023/05/26 07:39:11;;;;;;;1.03;0.57;;;;;;;;;;4962646;28;92095;-48
2023/05/26 07:41:39;;;;;;;3.87;1.00;;;;;;;;;;4962481;28;93185;-49
2023/05/26 07:44:07;;;;;;;1.27;0.80;;;;;;;;;;4962127;28;92945;-49
2023/05/26 07:46:36;;;;;;;2.17;0.80;;;;;;;;;;4962820;28;92109;-49
2023/05/26 07:49:06;;;;;;;1.60;0.73;;;;;;;;;;4962691;28;92683;-49
2023/05/26 07:51:35;;;;;;;2.53;0.93;;;;;;;;;;4962628;28;94314;-49
2023/05/26 07:54:03;;;;;;;0.50;0.50;;;;;;;;;;4962273;28;92811;-48
2023/05/26 07:56:31;;;;;;;1.63;0.50;;;;;;;;;;4962071;28;92109;-49
2023/05/26 07:59:00;;;;;;;1.67;0.70;;;;;;;;;;4963159;28;92416;-49
2023/05/26 08:01:28;;;;;;;3.50;0.93;;;;;;;;;;4961409;28;95265;-49
2023/05/26 08:03:56;;;;;;;3.27;0.90;;;;;;;;;;4961975;28;94851;-49
2023/05/26 08:06:26;;;;;;;0.67;0.43;;;;;;;;;;4962584;28;91813;-49
2023/05/26 08:08:55;;;;;;;1.83;0.80;;;;;;;;;;4962679;28;92030;-49
2023/05/26 08:11:23;;;;;;;3.30;0.70;;;;;;;;;;4962028;28;94368;-49
2023/05/26 08:13:52;;;;;;;0.87;0.57;;;;;;;;;;4961756;28;94040;-48
2023/05/26 08:16:20;;;;;;;0.93;0.70;;;;;;;;;;4962595;28;93259;-49
2023/05/26 08:18:49;;;;;;;3.87;0.80;;;;;;;;;;4962883;28;91272;-49
2023/05/26 08:21:17;;;;;;;3.60;0.70;;;;;;;;;;4962021;28;94262;-49
2023/05/26 08:23:47;;;;;;;7.00;1.23;;;;;;;;;;4961806;28;92950;-49
2023/05/26 08:26:15;;;;;;;2.03;0.67;;;;;;;;;;4961447;28;92924;-49
2023/05/26 08:28:43;;;;;;;4.97;1.20;;;;;;;;;;4962152;28;92120;-49
